createdAt,value
2023-02-14T00:00:48.751Z,19.27
2023-02-14T00:03:16.070Z,21.92
2023-02-14T00:05:43.100Z,40.50
2023-02-14T00:08:10.178Z,23.42
2023-02-14T00:10:37.229Z,20.58
2023-02-14T00:13:04.864Z,20.85
2023-02-14T00:15:31.870Z,19.55
2023-02-14T00:18:03.070Z,20.27
2023-02-14T00:20:30.010Z,22.85
2023-02-14T00:22:56.804Z,18.02
2023-02-14T00:25:23.675Z,18.92
2023-02-14T00:27:51.384Z,19.38
2023-02-14T00:30:18.276Z,19.17
2023-02-14T00:32:45.084Z,19.98
2023-02-14T00:35:12.350Z,18.73
2023-02-14T00:37:39.090Z,17.55
2023-02-14T00:40:06.978Z,18.52
2023-02-14T00:42:33.886Z,18.27
2023-02-14T00:45:01.050Z,18.42
2023-02-14T00:47:27.901Z,18.45
2023-02-14T00:49:54.822Z,16.70
2023-02-14T00:52:21.697Z,18.05
2023-02-14T00:54:48.655Z,17.33
2023-02-14T00:57:15.780Z,17.75
2023-02-14T00:59:42.623Z,17.98
2023-02-14T01:02:09.707Z,17.75
2023-02-14T01:04:36.665Z,17.48
2023-02-14T01:07:03.680Z,18.63
2023-02-14T01:09:30.576Z,18.73
2023-02-14T01:11:57.439Z,16.20
2023-02-14T01:14:24.271Z,15.45
2023-02-14T01:16:51.251Z,15.00
2023-02-14T01:19:18.226Z,15.95
2023-02-14T01:21:45.194Z,16.17
2023-02-14T01:24:12.953Z,15.68
2023-02-14T01:26:40.056Z,16.45
2023-02-14T01:29:07.314Z,17.55
2023-02-14T01:31:35.640Z,16.58
2023-02-14T01:34:02.940Z,16.92
2023-02-14T01:36:38.797Z,17.17
2023-02-14T01:39:13.643Z,15.20
2023-02-14T01:41:42.925Z,15.50
2023-02-14T01:44:15.551Z,16.13
2023-02-14T01:46:44.288Z,15.48
2023-02-14T01:49:14.114Z,16.00
2023-02-14T01:51:48.998Z,17.73
2023-02-14T01:54:17.850Z,17.55
2023-02-14T01:56:51.198Z,16.88
2023-02-14T01:59:22.602Z,15.93
2023-02-14T02:01:50.543Z,16.20
2023-02-14T02:04:22.568Z,16.27
2023-02-14T02:06:56.264Z,15.50
2023-02-14T02:09:26.669Z,17.98
2023-02-14T02:11:53.505Z,16.13
2023-02-14T02:14:22.873Z,16.45
2023-02-14T02:17:20.554Z,16.35
2023-02-14T02:19:50.303Z,16.65
2023-02-14T02:22:41.340Z,16.27
2023-02-14T02:25:46.054Z,16.63
2023-02-14T02:28:24.927Z,16.85
2023-02-14T02:31:25.110Z,16.00
2023-02-14T02:34:07.068Z,16.08
2023-02-14T02:37:04.967Z,15.73
2023-02-14T02:39:53.849Z,16.88
2023-02-14T02:42:44.852Z,15.43
2023-02-14T02:45:57.376Z,15.35
2023-02-14T02:51:13.919Z,19.13
2023-02-14T02:53:59.080Z,19.77
2023-02-14T02:56:47.480Z,20.23
2023-02-14T02:59:24.584Z,18.60
2023-02-14T03:02:03.519Z,18.88
2023-02-14T03:04:51.005Z,20.90
2023-02-14T03:07:35.871Z,20.73
2023-02-14T03:10:17.143Z,20.10
2023-02-14T03:13:10.715Z,20.02
2023-02-14T03:16:15.151Z,21.30
2023-02-14T03:19:40.634Z,19.90
2023-02-14T03:22:14.218Z,19.73
2023-02-14T03:25:18.140Z,21.63
2023-02-14T03:27:52.728Z,21.35
2023-02-14T03:30:28.513Z,21.33
2023-02-14T03:36:29.586Z,18.17
2023-02-14T03:39:05.982Z,20.08
2023-02-14T03:42:08.969Z,21.15
2023-02-14T03:44:37.426Z,20.35
2023-02-14T03:47:18.466Z,21.50
2023-02-14T03:49:51.347Z,22.95
2023-02-14T03:52:20.163Z,20.63
2023-02-14T03:54:52.229Z,21.05
2023-02-14T03:57:23.610Z,20.92
2023-02-14T03:59:50.786Z,21.30
2023-02-14T04:02:31.178Z,21.38
2023-02-14T04:04:59.890Z,21.38
2023-02-14T04:07:28.989Z,22.02
2023-02-14T04:09:55.774Z,21.08
2023-02-14T04:12:36.878Z,21.40
2023-02-14T04:15:05.703Z,20.15
2023-02-14T04:17:51.348Z,21.55
2023-02-14T04:20:18.343Z,21.33
2023-02-14T04:22:46.426Z,21.92
2023-02-14T04:25:13.770Z,21.67
2023-02-14T04:27:40.726Z,20.55
2023-02-14T04:30:08.279Z,23.00
2023-02-14T04:32:35.077Z,20.48
2023-02-14T04:35:01.913Z,20.38
2023-02-14T04:37:28.713Z,21.65
2023-02-14T04:39:55.450Z,21.42
2023-02-14T04:42:22.430Z,23.20
2023-02-14T04:44:49.246Z,21.50
2023-02-14T04:47:15.979Z,21.38
2023-02-14T04:49:42.759Z,21.38
2023-02-14T04:52:09.552Z,21.23
2023-02-14T04:54:36.455Z,22.50
2023-02-14T04:57:03.195Z,22.83
2023-02-14T04:59:30.384Z,22.50
2023-02-14T05:01:57.286Z,21.70
2023-02-14T05:04:24.764Z,22.52
2023-02-14T05:06:51.694Z,22.10
2023-02-14T05:09:18.745Z,22.10
2023-02-14T05:11:45.590Z,23.85
2023-02-14T05:14:13.781Z,22.63
2023-02-14T05:16:40.686Z,23.33
2023-02-14T05:19:07.670Z,24.60
2023-02-14T05:21:34.449Z,23.58
2023-02-14T05:24:01.622Z,24.98
2023-02-14T05:26:35.914Z,24.85
2023-02-14T05:29:02.721Z,24.27
2023-02-14T05:32:06.573Z,24.95
2023-02-14T05:35:24.429Z,22.83
2023-02-14T05:38:01.813Z,24.45
2023-02-14T05:40:29.018Z,23.98
2023-02-14T05:43:13.992Z,23.30
2023-02-14T05:45:40.757Z,23.98
2023-02-14T05:48:07.580Z,23.15
2023-02-14T05:50:34.439Z,25.55
2023-02-14T05:53:01.376Z,27.00
2023-02-14T05:56:14.119Z,25.25
2023-02-14T05:58:41.074Z,26.00
2023-02-14T06:01:07.939Z,25.52
2023-02-14T06:03:34.759Z,26.48
2023-02-14T06:06:01.796Z,25.58
2023-02-14T06:08:28.697Z,24.63
2023-02-14T06:10:55.532Z,27.23
2023-02-14T06:13:22.391Z,27.23
2023-02-14T06:15:49.168Z,25.27
2023-02-14T06:18:16.089Z,28.02
2023-02-14T06:20:42.822Z,24.60
2023-02-14T06:23:10.061Z,24.65
2023-02-14T06:25:37.283Z,26.42
2023-02-14T06:28:04.348Z,26.35
2023-02-14T06:30:31.849Z,26.15
2023-02-14T06:32:59.109Z,25.42
2023-02-14T06:35:26.263Z,26.75
2023-02-14T06:37:53.227Z,25.52
2023-02-14T06:40:30.022Z,26.08
2023-02-14T06:43:05.421Z,24.88
2023-02-14T06:45:32.861Z,25.83
2023-02-14T06:48:03.951Z,25.45
2023-02-14T06:50:42.255Z,25.75
2023-02-14T06:53:09.103Z,25.70
2023-02-14T06:55:36.117Z,26.25
2023-02-14T06:58:24.144Z,26.08
2023-02-14T07:00:50.914Z,26.67
2023-02-14T07:03:17.787Z,26.00
2023-02-14T07:05:45.202Z,26.42
2023-02-14T07:08:12.256Z,24.98
2023-02-14T07:10:39.373Z,27.83
2023-02-14T07:13:06.274Z,26.92
2023-02-14T07:15:33.176Z,27.00
2023-02-14T07:17:59.980Z,27.92
2023-02-14T07:20:26.989Z,26.05
2023-02-14T07:22:54.981Z,25.60
2023-02-14T07:25:22.025Z,27.65
2023-02-14T07:27:48.870Z,28.63
2023-02-14T07:30:16.090Z,29.63
2023-02-14T07:32:42.973Z,31.83
2023-02-14T07:35:09.944Z,32.67
2023-02-14T07:37:36.924Z,31.13
2023-02-14T07:40:06.162Z,28.92
2023-02-14T07:42:34.329Z,29.35
2023-02-14T07:45:09.381Z,30.25
2023-02-14T07:47:51.568Z,27.20
2023-02-14T07:50:19.261Z,29.40
2023-02-14T07:52:46.322Z,29.63
2023-02-14T07:55:15.940Z,30.52
2023-02-14T07:57:42.703Z,31.38
2023-02-14T08:00:09.948Z,29.15
2023-02-14T08:02:36.787Z,28.38
2023-02-14T08:05:03.712Z,26.55
2023-02-14T08:07:30.546Z,28.85
2023-02-14T08:09:57.466Z,29.50
2023-02-14T08:12:42.696Z,29.90
2023-02-14T08:15:28.349Z,29.02
2023-02-14T08:20:23.057Z,27.45
2023-02-14T08:22:49.979Z,29.48
2023-02-14T08:25:16.803Z,27.77
2023-02-14T08:27:43.627Z,28.23
2023-02-14T08:30:10.820Z,27.40
2023-02-14T08:32:40.527Z,29.05
2023-02-14T08:35:07.814Z,28.58
2023-02-14T08:37:34.946Z,27.80
2023-02-14T08:40:01.759Z,29.42
2023-02-14T08:42:29.677Z,28.67
2023-02-14T08:44:56.661Z,28.73
2023-02-14T08:47:23.585Z,28.45
2023-02-14T08:49:50.404Z,28.48
2023-02-14T08:52:17.471Z,26.60
2023-02-14T08:54:44.210Z,25.83
2023-02-14T08:57:10.943Z,27.95
2023-02-14T08:59:37.664Z,27.90
2023-02-14T09:02:04.404Z,27.45
2023-02-14T09:04:31.224Z,26.75
2023-02-14T09:06:58.022Z,27.77
2023-02-14T09:09:24.851Z,25.65
2023-02-14T09:11:51.715Z,26.15
2023-02-14T09:14:20.636Z,26.05
2023-02-14T09:16:47.650Z,25.60
2023-02-14T09:19:14.503Z,25.67
2023-02-14T09:21:41.655Z,24.80
2023-02-14T09:24:08.536Z,27.20
2023-02-14T09:26:36.877Z,26.23
2023-02-14T09:29:03.750Z,28.27
2023-02-14T09:31:30.739Z,27.63
2023-02-14T09:33:57.590Z,26.05
2023-02-14T09:36:24.466Z,25.55
2023-02-14T09:38:51.238Z,26.08
2023-02-14T09:41:48.254Z,26.55
2023-02-14T09:44:37.332Z,25.23
2023-02-14T09:47:15.281Z,23.45
2023-02-14T09:49:42.548Z,25.38
2023-02-14T09:52:15.609Z,25.38
2023-02-14T09:54:46.961Z,25.63
2023-02-14T09:57:16.678Z,26.50
2023-02-14T09:59:47.182Z,24.55
2023-02-14T10:02:38.556Z,25.20
2023-02-14T10:05:25.233Z,23.42
2023-02-14T10:07:58.097Z,23.50
2023-02-14T10:10:46.559Z,25.67
2023-02-14T10:13:40.809Z,24.30
2023-02-14T10:16:27.114Z,23.13
2023-02-14T10:19:04.236Z,23.42
2023-02-14T10:21:51.682Z,22.88
2023-02-14T10:24:23.698Z,23.30
2023-02-14T10:26:52.846Z,23.80
2023-02-14T10:29:20.894Z,22.83
2023-02-14T10:32:04.168Z,22.17
2023-02-14T10:34:57.261Z,23.75
2023-02-14T10:37:45.720Z,24.48
2023-02-14T10:40:41.764Z,22.40
2023-02-14T10:45:48.660Z,23.17
2023-02-14T10:48:20.259Z,21.52
2023-02-14T10:50:56.098Z,23.08
2023-02-14T10:53:40.835Z,22.63
2023-02-14T10:56:38.471Z,23.65
2023-02-14T10:59:21.876Z,21.65
2023-02-14T11:01:52.011Z,22.95
2023-02-14T11:04:21.574Z,21.48
2023-02-14T11:06:50.281Z,21.58
2023-02-14T11:09:21.209Z,20.80
2023-02-14T11:11:54.546Z,21.85
2023-02-14T11:14:24.340Z,21.83
2023-02-14T11:16:52.547Z,20.85
2023-02-14T11:19:19.385Z,22.13
2023-02-14T11:21:48.342Z,20.95
2023-02-14T11:24:18.166Z,19.75
2023-02-14T11:26:49.897Z,19.27
2023-02-14T11:29:25.438Z,18.77
2023-02-14T11:31:52.801Z,19.60
2023-02-14T11:34:34.042Z,19.50
2023-02-14T11:37:01.232Z,19.98
2023-02-14T11:39:37.152Z,19.80
2023-02-14T11:42:06.124Z,18.55
2023-02-14T11:44:36.784Z,18.73
2023-02-14T11:47:27.218Z,19.80
2023-02-14T11:49:57.250Z,20.88
2023-02-14T11:52:26.746Z,18.83
2023-02-14T11:54:54.964Z,18.52
2023-02-14T11:57:24.370Z,18.83
2023-02-14T11:59:54.132Z,18.20
2023-02-14T12:02:20.899Z,18.77
2023-02-14T12:04:50.194Z,19.60
2023-02-14T12:07:21.835Z,18.85
2023-02-14T12:10:25.180Z,17.75
2023-02-14T12:13:25.048Z,18.30
2023-02-14T12:15:57.328Z,17.92
2023-02-14T12:18:39.656Z,17.92
2023-02-14T12:21:18.626Z,20.38
2023-02-14T12:23:56.841Z,18.40
2023-02-14T12:26:32.642Z,19.38
2023-02-14T12:29:34.283Z,18.60
2023-02-14T12:32:21.538Z,18.25
2023-02-14T12:34:49.551Z,18.90
2023-02-14T12:37:28.472Z,18.58
2023-02-14T12:40:27.943Z,18.77
2023-02-14T12:43:20.702Z,19.10
2023-02-14T12:45:56.450Z,18.77
2023-02-14T12:48:32.115Z,19.42
2023-02-14T12:51:12.431Z,19.98
2023-02-14T12:54:01.290Z,18.88
2023-02-14T12:56:31.507Z,20.30
2023-02-14T12:59:38.200Z,19.02
2023-02-14T13:02:13.892Z,18.67
2023-02-14T13:04:46.776Z,19.77
2023-02-14T13:07:47.382Z,19.20
2023-02-14T13:10:51.994Z,17.85
2023-02-14T13:13:56.595Z,17.30
2023-02-14T13:16:46.208Z,18.65
2023-02-14T13:19:12.989Z,19.27
2023-02-14T13:21:41.060Z,18.15
2023-02-14T13:24:29.744Z,18.73
2023-02-14T13:27:00.973Z,19.63
2023-02-14T13:29:32.600Z,18.90
2023-02-14T13:32:03.079Z,18.35
2023-02-14T13:34:32.981Z,19.10
2023-02-14T13:37:02.667Z,19.05
2023-02-14T13:39:40.534Z,20.05
2023-02-14T13:42:08.241Z,20.30
2023-02-14T13:44:52.649Z,18.75
2023-02-14T13:47:24.855Z,19.55
2023-02-14T13:49:56.948Z,19.60
2023-02-14T13:52:44.026Z,19.55
2023-02-14T13:55:21.579Z,17.88
2023-02-14T13:58:01.070Z,19.23
2023-02-14T14:00:41.782Z,19.63
2023-02-14T14:03:15.589Z,20.50
2023-02-14T14:05:48.193Z,19.67
2023-02-14T14:08:21.171Z,19.13
2023-02-14T14:10:53.952Z,17.25
2023-02-14T14:13:42.371Z,17.85
2023-02-14T14:16:24.576Z,18.00
2023-02-14T14:18:56.885Z,18.08
2023-02-14T14:21:26.682Z,17.40
2023-02-14T14:24:15.213Z,18.20
2023-02-14T14:26:59.906Z,16.83
2023-02-14T14:29:46.467Z,16.98
2023-02-14T14:32:30.351Z,18.10
2023-02-14T14:35:00.364Z,17.00
2023-02-14T14:37:33.189Z,16.45
2023-02-14T14:40:06.402Z,17.67
2023-02-14T14:42:37.288Z,16.70
2023-02-14T14:45:29.084Z,16.42
2023-02-14T14:47:58.441Z,17.80
2023-02-14T14:50:31.557Z,17.02
2023-02-14T14:53:09.425Z,17.30
2023-02-14T14:55:38.269Z,17.27
2023-02-14T14:58:09.029Z,18.08
2023-02-14T15:00:38.837Z,19.33
2023-02-14T15:03:14.750Z,20.25
2023-02-14T15:05:44.651Z,18.02
2023-02-14T15:08:23.141Z,19.20
2023-02-14T15:10:57.133Z,19.40
2023-02-14T15:13:49.664Z,19.42
2023-02-14T15:16:20.986Z,21.27
2023-02-14T15:18:49.288Z,21.80
2023-02-14T15:21:17.873Z,19.27
2023-02-14T15:23:45.926Z,19.65
2023-02-14T15:26:29.226Z,20.45
2023-02-14T15:28:59.626Z,21.15
2023-02-14T15:31:34.645Z,21.50
2023-02-14T15:34:03.094Z,20.67
2023-02-14T15:36:32.272Z,22.15
2023-02-14T15:39:01.010Z,21.67
2023-02-14T15:41:27.935Z,23.35
2023-02-14T15:43:56.899Z,20.65
2023-02-14T15:46:33.627Z,22.23
2023-02-14T15:49:05.360Z,20.70
2023-02-14T15:51:36.363Z,20.98
2023-02-14T15:54:07.537Z,21.58
2023-02-14T15:56:42.924Z,21.95
2023-02-14T15:59:31.830Z,20.85
2023-02-14T16:02:17.073Z,22.05
2023-02-14T16:04:44.432Z,21.25
2023-02-14T16:07:27.565Z,21.30
2023-02-14T16:10:23.773Z,20.33
2023-02-14T16:13:20.600Z,19.52
2023-02-14T16:16:14.240Z,21.20
2023-02-14T16:18:47.799Z,21.50
2023-02-14T16:21:19.613Z,22.25
2023-02-14T16:24:13.089Z,21.33
2023-02-14T16:26:42.159Z,19.02
2023-02-14T16:29:15.776Z,21.52
2023-02-14T16:32:14.173Z,21.00
2023-02-14T16:34:36.993Z,21.10
2023-02-14T16:37:17.074Z,20.35
2023-02-14T16:39:45.513Z,21.65
2023-02-14T16:42:17.082Z,21.38
2023-02-14T16:44:45.002Z,22.02
2023-02-14T16:47:13.955Z,21.40
2023-02-14T16:49:41.280Z,20.98
2023-02-14T16:52:15.889Z,21.63
2023-02-14T16:54:42.909Z,21.75
2023-02-14T16:57:19.708Z,19.90
2023-02-14T16:59:46.938Z,21.17
2023-02-14T17:02:13.907Z,22.65
2023-02-14T17:04:40.694Z,20.33
2023-02-14T17:07:08.020Z,21.52
2023-02-14T17:09:41.104Z,19.48
2023-02-14T17:12:14.772Z,21.75
2023-02-14T17:14:44.656Z,20.35
2023-02-14T17:17:12.000Z,20.38
2023-02-14T17:19:39.032Z,20.38
2023-02-14T17:22:06.295Z,20.95
2023-02-14T17:24:33.282Z,20.48
2023-02-14T17:27:00.222Z,22.00
2023-02-14T17:29:27.139Z,19.48
2023-02-14T17:31:54.013Z,23.17
2023-02-14T17:34:20.919Z,22.40
2023-02-14T17:36:47.703Z,22.00
2023-02-14T17:39:14.938Z,20.25
2023-02-14T17:41:41.718Z,21.50
2023-02-14T17:44:08.664Z,21.48
2023-02-14T17:46:37.772Z,22.00
2023-02-14T17:49:04.643Z,21.98
2023-02-14T17:51:31.540Z,20.90
2023-02-14T17:53:59.068Z,21.35
2023-02-14T17:56:26.626Z,21.52
2023-02-14T17:58:55.190Z,26.67
2023-02-14T18:01:24.591Z,24.50
2023-02-14T18:03:53.036Z,23.00
2023-02-14T18:06:20.078Z,23.77
2023-02-14T18:08:49.821Z,25.23
2023-02-14T18:11:18.527Z,30.17
2023-02-14T18:13:45.460Z,33.55
2023-02-14T18:16:15.757Z,26.83
2023-02-14T18:18:44.106Z,23.83
2023-02-14T18:21:13.750Z,26.10
2023-02-14T18:23:40.688Z,28.60
2023-02-14T18:26:12.055Z,27.65
2023-02-14T18:28:39.503Z,25.30
2023-02-14T18:31:09.322Z,25.85
2023-02-14T18:33:36.833Z,23.95
2023-02-14T18:36:11.770Z,25.95
2023-02-14T18:38:42.997Z,23.30
2023-02-14T18:41:12.644Z,24.98
2023-02-14T18:43:41.149Z,22.70
2023-02-14T18:46:11.498Z,22.70
2023-02-14T18:48:39.046Z,28.35
2023-02-14T18:51:13.730Z,30.23
2023-02-14T18:53:41.916Z,28.77
2023-02-14T18:56:22.084Z,29.15
2023-02-14T18:58:52.783Z,27.35
2023-02-14T19:01:25.196Z,24.80
2023-02-14T19:03:53.917Z,23.30
2023-02-14T19:06:21.551Z,24.77
2023-02-14T19:08:49.217Z,24.23
2023-02-14T19:11:22.085Z,26.15
2023-02-14T19:13:52.195Z,24.05
2023-02-14T19:16:22.512Z,22.42
2023-02-14T19:18:53.784Z,27.90
2023-02-14T19:21:25.917Z,28.55
2023-02-14T19:23:54.639Z,28.90
2023-02-14T19:26:24.340Z,27.85
2023-02-14T19:28:56.137Z,26.35
2023-02-14T19:31:23.515Z,27.95
2023-02-14T19:33:50.640Z,29.92
2023-02-14T19:36:20.059Z,27.80
2023-02-14T19:38:50.252Z,28.73
2023-02-14T19:41:24.072Z,28.13
2023-02-14T19:43:51.599Z,27.40
2023-02-14T19:46:20.294Z,28.83
2023-02-14T19:48:47.922Z,28.05
2023-02-14T19:51:22.462Z,23.52
2023-02-14T19:53:49.779Z,22.80
2023-02-14T19:56:21.350Z,22.27
2023-02-14T19:58:49.236Z,21.30
2023-02-14T20:01:34.547Z,22.20
2023-02-14T20:06:31.816Z,18.48
2023-02-14T20:08:58.631Z,20.48
2023-02-14T20:11:35.533Z,20.90
2023-02-14T20:14:03.536Z,22.88
2023-02-14T20:16:33.275Z,22.65
2023-02-14T20:19:08.251Z,22.67
2023-02-14T20:24:03.699Z,22.83
2023-02-14T20:26:33.146Z,26.33
2023-02-14T20:29:03.717Z,24.92
2023-02-14T20:31:32.237Z,24.60
2023-02-14T20:33:59.624Z,22.52
2023-02-14T20:36:27.321Z,24.05
2023-02-14T20:39:01.487Z,24.90
2023-02-14T20:41:29.791Z,21.83
2023-02-14T20:44:05.731Z,21.67
2023-02-14T20:46:33.696Z,22.90
2023-02-14T20:49:00.682Z,20.77
2023-02-14T20:51:27.824Z,22.15
2023-02-14T20:53:54.950Z,21.17
2023-02-14T20:56:23.520Z,21.80
2023-02-14T20:58:50.917Z,22.13
2023-02-14T21:01:23.495Z,20.88
2023-02-14T21:03:51.941Z,22.23
2023-02-14T21:06:27.229Z,21.42
2023-02-14T21:08:54.055Z,19.42
2023-02-14T21:11:22.682Z,22.10
2023-02-14T21:13:49.832Z,21.00
2023-02-14T21:16:19.195Z,21.42
2023-02-14T21:18:49.124Z,22.85
2023-02-14T21:21:21.640Z,21.83
2023-02-14T21:23:50.922Z,21.60
2023-02-14T21:26:18.896Z,21.45
2023-02-14T21:28:46.257Z,21.77
2023-02-14T21:31:15.186Z,20.85
2023-02-14T21:33:41.996Z,22.95
2023-02-14T21:36:13.711Z,23.80
2023-02-14T21:38:41.237Z,32.55
2023-02-14T21:41:13.848Z,24.30
2023-02-14T21:43:45.625Z,21.50
2023-02-14T21:46:27.101Z,22.67
2023-02-14T21:49:13.756Z,21.40
2023-02-14T21:51:40.705Z,21.35
2023-02-14T21:54:08.181Z,21.15
2023-02-14T21:56:36.317Z,19.17
2023-02-14T21:59:03.653Z,21.33
2023-02-14T22:01:33.006Z,21.67
2023-02-14T22:04:00.861Z,20.85
2023-02-14T22:06:28.080Z,20.23
2023-02-14T22:08:56.870Z,21.50
2023-02-14T22:11:29.098Z,29.67
2023-02-14T22:13:56.811Z,24.83
2023-02-14T22:16:24.749Z,23.90
2023-02-14T22:18:52.043Z,22.02
2023-02-14T22:21:22.244Z,20.92
2023-02-14T22:23:49.687Z,19.58
2023-02-14T22:26:25.733Z,19.63
2023-02-14T22:28:56.731Z,21.40
2023-02-14T22:31:25.958Z,20.20
2023-02-14T22:33:53.271Z,19.75
2023-02-14T22:36:20.451Z,21.55
2023-02-14T22:38:47.238Z,20.27
2023-02-14T22:41:16.431Z,20.00
2023-02-14T22:43:44.319Z,19.88
2023-02-14T22:46:19.775Z,20.77
2023-02-14T22:48:48.120Z,19.90
2023-02-14T22:51:34.153Z,19.75
2023-02-14T22:54:13.406Z,21.33
2023-02-14T22:56:48.927Z,21.75
2023-02-14T22:59:24.563Z,20.48
2023-02-14T23:01:52.724Z,20.58
2023-02-14T23:04:21.787Z,23.77
2023-02-14T23:06:49.101Z,22.35
2023-02-14T23:09:15.947Z,20.63
2023-02-14T23:11:44.351Z,22.88
2023-02-14T23:14:31.719Z,20.25
2023-02-14T23:17:17.293Z,23.27
2023-02-14T23:20:03.481Z,23.50
2023-02-14T23:22:32.309Z,22.23
2023-02-14T23:25:03.447Z,22.42
2023-02-14T23:27:43.320Z,21.95
2023-02-14T23:30:13.862Z,23.52
2023-02-14T23:32:40.818Z,21.15
2023-02-14T23:35:07.684Z,23.30
2023-02-14T23:37:34.525Z,21.95
2023-02-14T23:40:01.348Z,24.95
2023-02-14T23:42:28.257Z,23.77
2023-02-14T23:45:15.022Z,25.20
2023-02-14T23:47:41.851Z,24.23
2023-02-14T23:50:09.118Z,25.73
2023-02-14T23:52:38.486Z,22.77
2023-02-14T23:55:05.763Z,24.35
2023-02-14T23:57:32.482Z,24.23
